Troviken — C6ZT9 — position and weather

sailwx.info

Track history (hours):
 
Tides and Currents Weather Stations Pressure Air Temp Water Temp Dewpoint Dewpoint Depression Visibility Wind Speed Wind Dir Waves Ship Positions

Troviken

Last reported at 2015-Jul-30 08:31 UTC. Time now 2015-Aug-01 22:18 UTC.
Position N 29°05' W 094°40'.

Length 250 m; draft 8.2 m.

Type: Ship. MMSI: 311066200.

Date/timePositionNaut miles runAvg speedWind from/ knotsBaromVisibWave heightAir tempDewpointWater temp
2015-Jul-30 08:31N 29°05' W 094°40'32 4.0
2015-Jul-30 00:31N 28°41' W 094°16'16 5.2
2015-Jul-29 21:32N 28°40' W 093°58'6210.3
2015-Jul-29 15:28N 29°22' W 094°51'2 2.3
2015-Jul-29 14:26N 29°22' W 094°53'0 0.0
2015-Jul-29 13:26N 29°22' W 094°53'0 0.0
2015-Jul-29 12:32N 29°22' W 094°53'0 0.0
2015-Jul-29 11:29N 29°22' W 094°53'0 0.0
2015-Jul-29 10:29N 29°22' W 094°53'0 0.0
2015-Jul-29 09:29N 29°22' W 094°53'0 0.0
2015-Jul-29 08:32N 29°22' W 094°53'0 0.0
2015-Jul-29 07:32N 29°22' W 094°53'0 0.0
2015-Jul-29 06:32N 29°22' W 094°53'0 0.0
2015-Jul-29 05:29N 29°22' W 094°53'0 0.0
2015-Jul-29 04:32N 29°22' W 094°53'0 0.0
2015-Jul-29 03:29N 29°22' W 094°53'0 0.0
2015-Jul-29 02:29N 29°22' W 094°53'0 0.0
2015-Jul-29 01:29N 29°22' W 094°53'0 0.0
2015-Jul-29 00:32N 29°22' W 094°53'0 0.0
2015-Jul-28 23:32N 29°22' W 094°53'0 0.0
2015-Jul-28 22:32N 29°22' W 094°53'0 0.0
2015-Jul-28 21:29N 29°22' W 094°53'0 0.0
2015-Jul-28 20:23N 29°22' W 094°53'0 0.0
2015-Jul-28 19:32N 29°22' W 094°53'0 0.0
2015-Jul-28 18:32N 29°22' W 094°53'0 0.0
2015-Jul-28 17:32N 29°22' W 094°53'0 0.0
2015-Jul-28 16:29N 29°22' W 094°53'0 0.0
2015-Jul-28 15:32N 29°22' W 094°53'0 0.0
2015-Jul-28 14:26N 29°22' W 094°53'0 0.0
2015-Jul-28 13:29N 29°22' W 094°53'0 0.0
2015-Jul-28 12:32N 29°22' W 094°53'0 0.0
2015-Jul-28 11:29N 29°22' W 094°53'0 0.0
2015-Jul-28 10:23N 29°22' W 094°53'0 0.0
2015-Jul-28 09:32N 29°22' W 094°53'0 0.0
2015-Jul-28 08:32N 29°22' W 094°53'0 0.0
2015-Jul-28 07:32N 29°22' W 094°53'0 0.0
2015-Jul-28 06:32N 29°22' W 094°53'0 0.0
2015-Jul-28 05:11N 29°22' W 094°53'0 0.0
2015-Jul-28 04:32N 29°22' W 094°53'0 0.0
2015-Jul-28 03:23N 29°22' W 094°53'0 0.0
2015-Jul-28 02:23N 29°22' W 094°53'0 0.0
2015-Jul-28 01:32N 29°22' W 094°53'0 0.0
2015-Jul-28 00:26N 29°22' W 094°53'0 0.0
2015-Jul-27 23:29N 29°22' W 094°53'0 0.0
2015-Jul-27 22:29N 29°22' W 094°53'0 0.0
2015-Jul-27 21:32N 29°22' W 094°53'0 0.0
2015-Jul-27 20:08N 29°22' W 094°53'0 0.0
2015-Jul-27 19:32N 29°22' W 094°53'0 0.0
2015-Jul-27 18:32N 29°22' W 094°53'0 0.0
2015-Jul-27 17:30N 29°22' W 094°53'4 4.3
2015-Jul-27 16:33N 29°22' W 094°49'28 2.1
2015-Jul-27 03:29N 29°04' W 094°25'61 1.5
2015-Jul-25 11:15N 29°60' W 093°56'  
Track history (hours):
 
Tides and Currents Weather Stations Pressure Air Temp Water Temp Dewpoint Dewpoint Depression Visibility Wind Speed Wind Dir Waves Ship Positions

Troviken

Last reported at 2015-Jul-30 08:31 UTC. Time now 2015-Aug-01 22:18 UTC.
Position N 29°05' W 094°40'.

Length 250 m; draft 8.2 m.

Type: Ship. MMSI: 311066200.

Date/timePositionNaut miles runAvg speedWind from/ knotsBaromVisibWave heightAir tempDewpointWater temp
2015-Jul-30 08:31N 29°05' W 094°40'32 4.0
2015-Jul-30 00:31N 28°41' W 094°16'16 5.2
2015-Jul-29 21:32N 28°40' W 093°58'6210.3
2015-Jul-29 15:28N 29°22' W 094°51'2 2.3
2015-Jul-29 14:26N 29°22' W 094°53'0 0.0
2015-Jul-29 13:26N 29°22' W 094°53'0 0.0
2015-Jul-29 12:32N 29°22' W 094°53'0 0.0
2015-Jul-29 11:29N 29°22' W 094°53'0 0.0
2015-Jul-29 10:29N 29°22' W 094°53'0 0.0
2015-Jul-29 09:29N 29°22' W 094°53'0 0.0
2015-Jul-29 08:32N 29°22' W 094°53'0 0.0
2015-Jul-29 07:32N 29°22' W 094°53'0 0.0
2015-Jul-29 06:32N 29°22' W 094°53'0 0.0
2015-Jul-29 05:29N 29°22' W 094°53'0 0.0
2015-Jul-29 04:32N 29°22' W 094°53'0 0.0
2015-Jul-29 03:29N 29°22' W 094°53'0 0.0
2015-Jul-29 02:29N 29°22' W 094°53'0 0.0
2015-Jul-29 01:29N 29°22' W 094°53'0 0.0
2015-Jul-29 00:32N 29°22' W 094°53'0 0.0
2015-Jul-28 23:32N 29°22' W 094°53'0 0.0
2015-Jul-28 22:32N 29°22' W 094°53'0 0.0
2015-Jul-28 21:29N 29°22' W 094°53'0 0.0
2015-Jul-28 20:23N 29°22' W 094°53'0 0.0
2015-Jul-28 19:32N 29°22' W 094°53'0 0.0
2015-Jul-28 18:32N 29°22' W 094°53'0 0.0
2015-Jul-28 17:32N 29°22' W 094°53'0 0.0
2015-Jul-28 16:29N 29°22' W 094°53'0 0.0
2015-Jul-28 15:32N 29°22' W 094°53'0 0.0
2015-Jul-28 14:26N 29°22' W 094°53'0 0.0
2015-Jul-28 13:29N 29°22' W 094°53'0 0.0
2015-Jul-28 12:32N 29°22' W 094°53'0 0.0
2015-Jul-28 11:29N 29°22' W 094°53'0 0.0
2015-Jul-28 10:23N 29°22' W 094°53'0 0.0
2015-Jul-28 09:32N 29°22' W 094°53'0 0.0
2015-Jul-28 08:32N 29°22' W 094°53'0 0.0
2015-Jul-28 07:32N 29°22' W 094°53'0 0.0
2015-Jul-28 06:32N 29°22' W 094°53'0 0.0
2015-Jul-28 05:11N 29°22' W 094°53'0 0.0
2015-Jul-28 04:32N 29°22' W 094°53'0 0.0
2015-Jul-28 03:23N 29°22' W 094°53'0 0.0
2015-Jul-28 02:23N 29°22' W 094°53'0 0.0
2015-Jul-28 01:32N 29°22' W 094°53'0 0.0
2015-Jul-28 00:26N 29°22' W 094°53'0 0.0
2015-Jul-27 23:29N 29°22' W 094°53'0 0.0
2015-Jul-27 22:29N 29°22' W 094°53'0 0.0
2015-Jul-27 21:32N 29°22' W 094°53'0 0.0
2015-Jul-27 20:08N 29°22' W 094°53'0 0.0
2015-Jul-27 19:32N 29°22' W 094°53'0 0.0
2015-Jul-27 18:32N 29°22' W 094°53'0 0.0
2015-Jul-27 17:30N 29°22' W 094°53'4 4.3
2015-Jul-27 16:33N 29°22' W 094°49'28 2.1
2015-Jul-27 03:29N 29°04' W 094°25'61 1.5
2015-Jul-25 11:15N 29°60' W 093°56'  

Dump ship's entire track history